首页
METAR-TAF:

METAR-TAF

机场 :

伊丽莎白市, 北卡罗来纳州, 美国

纬度: 36-15-47N, 经度: 076-10-58W, 海拔: 3米

当前天气观测

该预报发布于1小时和1分钟前的09:54 UTC
风速15节,风向西南,有时为25节阵风
温度 16°C
湿度 88%
气压 1010 hPa
能見度: 14.5公里
多云层高于1300英尺
多云层高于1900英尺
阴天层高于2300英尺

METAR: KECG 190954Z AUTO 23015G25KT 9SM BKN013 BKN019 OVC023 16/14 A2983 RMK AO2 RAB30E40 SLP101 P0000 T01610139

时间: 05:55 (10:55 UTC)

预报

该预报发布于29分钟前的10:26 UTC
预报有效从19日的 10点(UTC)到 20日的 06点(UTC)
风速15节,风向西南,有时为25节阵风
能見度: 10公里
多云层高于1300英尺
多云层高于1900英尺
阴天层高于2300英尺
短暂存在
从 19日的 10点(UTC)到 19日的 11点(UTC)
多云层高于900英尺
从 19日的 1100点(UTC)
风速13节,风向西转西南,有时为20节阵风
能見度: 10公里
阴天层高于1500英尺
附近有阵雨
从 19日的 1400点(UTC)
风速12节,风向西
能見度: 10公里
多云层高于3500英尺
从 19日的 1700点(UTC)
风速14节,风向西转西北,有时为21节阵风
能見度: 10公里
少量云层高于5000英尺

TAF: KECG 191026Z 1910/2006 23015G25KT P6SM BKN013 BKN019 OVC023 TEMPO 1910/1911 BKN009 FM191100 24013G20KT P6SM VCSH OVC015 FM191400 27012KT P6SM BKN035 FM191700 30014G21KT P6SM FEW050

超过4000个机场的气象观测和天气预报(METAR&TAF报告)。

可查询的气象台以黄色和红色小点在地图上表示。

将鼠标移到小点上方,可查看气象台名称。

然后点击查看天气观测和预报。

如需切换地图:点击带黑十字的绿色按钮放大地图;点击带横线的绿色按钮缩小地图;或者点击绿色箭头查看邻近地区的地图。


METAR-TAF: